Time;durP1;ratioP1;P1;durP2;ratioP2;P2;SDS_P1;SDS_P2;PMS_P1;PMS_P2;Temp;Humidity;BMP_temperature;BMP_pressure;BME280_temperature;BME280_humidity;BME280_pressure;Samples;Min_cycle;Max_cycle;Signal;HPM_P1;HPM_P2
2023/01/06 00:00:07;;;;;;;;;;;;;;;;;;4934571;29;19942;-89
2023/01/06 00:02:33;;;;;;;;;;;;;;;;;;4934743;29;20040;-90
2023/01/06 00:04:58;;;;;;;;;;;;;;;;;;4918925;29;19922;-90
2023/01/06 00:07:23;;;;;;;;;;;;;;;;;;4934565;29;19918;-92
2023/01/06 00:09:49;;;;;;;;;;;;;;;;;;4918468;29;19922;-91
2023/01/06 00:12:14;;;;;;;;;;;;;;;;;;4918844;29;19983;-89
2023/01/06 00:14:41;;;;;;;;;;;;;;;;;;4918282;29;19916;-89
2023/01/06 00:17:07;;;;;;;;;;;;;;;;;;4918182;29;19923;-90
2023/01/06 00:19:32;;;;;;;;;;;;;;;;;;4918547;29;19922;-89
2023/01/06 00:21:58;;;;;;;;;;;;;;;;;;4919735;29;19919;-89
2023/01/06 00:24:23;;;;;;;;;;;;;;;;;;4919663;29;20334;-89
2023/01/06 00:26:49;;;;;;;;;;;;;;;;;;4917446;29;20311;-88
2023/01/06 00:29:14;;;;;;;;;;;;;;;;;;4917849;29;19915;-91
2023/01/06 00:31:39;;;;;;;;;;;;;;;;;;4919019;29;20363;-89
2023/01/06 00:34:06;;;;;;;;;;;;;;;;;;4919035;29;20390;-88
2023/01/06 00:36:31;;;;;;;;;;;;;;;;;;4901944;29;19973;-90
2023/01/06 00:38:56;;;;;;;;;;;;;;;;;;4902470;29;19923;-90
2023/01/06 00:44:06;;;;;;;;;;;;;;;;;;4917325;29;19922;-90
2023/01/06 00:46:33;;;;;;;;;;;;;;;;;;4901865;29;19931;-91
2023/01/06 00:48:58;;;;;;;;;;;;;;;;;;4901572;29;20010;-89
2023/01/06 00:51:23;;;;;;;;;;;;;;;;;;4901709;29;19969;-90
2023/01/06 00:53:49;;;;;;;;;;;;;;;;;;4917226;29;19923;-91
2023/01/06 00:56:14;;;;;;;;;;;;;;;;;;4917007;29;19987;-90
2023/01/06 00:58:39;;;;;;;;;;;;;;;;;;4916149;29;19922;-88
2023/01/06 01:01:05;;;;;;;;;;;;;;;;;;4916926;29;19922;-89
2023/01/06 01:03:30;;;;;;;;;;;;;;;;;;4916668;29;20054;-87
2023/01/06 01:05:56;;;;;;;;;;;;;;;;;;4916833;29;19922;-89
2023/01/06 01:08:21;;;;;;;;;;;;;;;;;;4917023;29;19994;-89
2023/01/06 01:10:46;;;;;;;;;;;;;;;;;;4917397;29;19996;-91
2023/01/06 01:13:12;;;;;;;;;;;;;;;;;;4917267;29;20407;-91
2023/01/06 01:15:37;;;;;;;;;;;;;;;;;;4916870;29;19946;-90
2023/01/06 01:18:03;;;;;;;;;;;;;;;;;;4918228;29;19915;-90
2023/01/06 01:20:28;;;;;;;;;;;;;;;;;;4916401;29;19998;-92
2023/01/06 01:22:53;;;;;;;;;;;;;;;;;;4900998;29;20264;-90
2023/01/06 01:25:19;;;;;;;;;;;;;;;;;;4917755;29;19919;-90
2023/01/06 01:27:44;;;;;;;;;;;;;;;;;;4916727;29;19915;-90
2023/01/06 01:30:10;;;;;;;;;;;;;;;;;;4917144;29;19919;-90
2023/01/06 01:32:35;;;;;;;;;;;;;;;;;;4900370;29;19962;-90
2023/01/06 01:35:00;;;;;;;;;;;;;;;;;;4916540;29;19954;-88
2023/01/06 01:37:26;;;;;;;;;;;;;;;;;;4917817;29;20058;-89
2023/01/06 01:39:51;;;;;;;;;;;;;;;;;;4916532;29;20375;-90
2023/01/06 01:42:17;;;;;;;;;;;;;;;;;;4916507;29;20289;-90
2023/01/06 01:44:42;;;;;;;;;;;;;;;;;;4917608;29;19922;-89
2023/01/06 01:47:08;;;;;;;;;;;;;;;;;;4916721;29;19915;-90
2023/01/06 01:49:33;;;;;;;;;;;;;;;;;;4916074;29;20359;-87
2023/01/06 01:51:59;;;;;;;;;;;;;;;;;;4906195;29;19915;-87
2023/01/06 01:54:24;;;;;;;;;;;;;;;;;;4923453;29;19926;-85
2023/01/06 01:56:51;;;;;;;;;;;;;;;;;;4923095;29;19919;-87
2023/01/06 01:59:17;;;;;;;;;;;;;;;;;;4923386;29;19911;-87
2023/01/06 02:01:42;;;;;;;;;;;;;;;;;;4908584;29;19922;-85
2023/01/06 02:04:07;;;;;;;;;;;;;;;;;;4906565;29;19919;-90
2023/01/06 02:06:34;;;;;;;;;;;;;;;;;;4899549;29;20072;-89
2023/01/06 02:08:59;;;;;;;;;;;;;;;;;;4898755;29;19960;-90
2023/01/06 02:11:24;;;;;;;;;;;;;;;;;;4882023;29;19915;-89
2023/01/06 02:13:50;;;;;;;;;;;;;;;;;;4897810;29;19915;-90
2023/01/06 02:16:15;;;;;;;;;;;;;;;;;;4882446;29;19927;-91
2023/01/06 02:18:41;;;;;;;;;;;;;;;;;;4899773;29;19916;-91
2023/01/06 02:21:06;;;;;;;;;;;;;;;;;;4899914;29;20297;-90
2023/01/06 02:23:32;;;;;;;;;;;;;;;;;;4899591;29;19919;-91
2023/01/06 02:25:57;;;;;;;;;;;;;;;;;;4898592;29;20315;-90
2023/01/06 02:28:23;;;;;;;;;;;;;;;;;;4899963;29;19916;-89
2023/01/06 02:30:48;;;;;;;;;;;;;;;;;;4898186;29;20357;-88
2023/01/06 02:33:13;;;;;;;;;;;;;;;;;;4883341;29;19922;-90
2023/01/06 02:35:39;;;;;;;;;;;;;;;;;;4883156;29;19923;-89
2023/01/06 02:38:05;;;;;;;;;;;;;;;;;;4886555;29;19922;-90
2023/01/06 02:40:31;;;;;;;;;;;;;;;;;;4901461;29;19915;-91
2023/01/06 02:42:59;;;;;;;;;;;;;;;;;;4886763;29;19919;-90
2023/01/06 02:45:25;;;;;;;;;;;;;;;;;;4887147;29;20006;-87
2023/01/06 02:47:50;;;;;;;;;;;;;;;;;;4903956;29;20022;-87
2023/01/06 02:50:16;;;;;;;;;;;;;;;;;;4889524;29;20007;-88
2023/01/06 02:52:41;;;;;;;;;;;;;;;;;;4891375;29;20006;-86
2023/01/06 02:55:07;;;;;;;;;;;;;;;;;;4889451;29;20327;-90
2023/01/06 02:57:32;;;;;;;;;;;;;;;;;;4900845;29;19915;-87
2023/01/06 03:00:00;;;;;;;;;;;;;;;;;;4913630;29;20286;-86
2023/01/06 03:02:26;;;;;;;;;;;;;;;;;;4910394;29;19958;-88
2023/01/06 03:04:51;;;;;;;;;;;;;;;;;;4911266;29;19915;-85
2023/01/06 03:07:17;;;;;;;;;;;;;;;;;;4910727;29;19911;-86
2023/01/06 03:09:42;;;;;;;;;;;;;;;;;;4913839;29;19923;-84
2023/01/06 03:12:08;;;;;;;;;;;;;;;;;;4926545;29;19919;-86
2023/01/06 03:14:34;;;;;;;;;;;;;;;;;;4911319;29;20290;-89
2023/01/06 03:16:59;;;;;;;;;;;;;;;;;;4908832;29;20397;-87
2023/01/06 03:19:28;;;;;;;;;;;;;;;;;;4924713;29;19915;-88
2023/01/06 03:21:54;;;;;;;;;;;;;;;;;;4929805;23;19946;-83
2023/01/06 03:24:21;;;;;;;;;;;;;;;;;;4938359;29;19926;-83
2023/01/06 03:26:47;;;;;;;;;;;;;;;;;;4936867;29;19915;-83
2023/01/06 03:29:13;;;;;;;;;;;;;;;;;;4933781;29;19915;-83
2023/01/06 03:31:38;;;;;;;;;;;;;;;;;;4929335;29;19926;-83
2023/01/06 03:34:03;;;;;;;;;;;;;;;;;;4912067;29;19978;-83
2023/01/06 03:36:29;;;;;;;;;;;;;;;;;;4896717;29;19983;-85
2023/01/06 03:38:54;;;;;;;;;;;;;;;;;;4930412;29;19939;-83
2023/01/06 03:41:20;;;;;;;;;;;;;;;;;;4915565;29;19922;-83
2023/01/06 03:43:46;;;;;;;;;;;;;;;;;;4914187;29;19915;-82
2023/01/06 03:46:11;;;;;;;;;;;;;;;;;;4923876;29;19979;-83
2023/01/06 03:48:39;;;;;;;;;;;;;;;;;;4900431;29;19921;-85
2023/01/06 03:51:04;;;;;;;;;;;;;;;;;;4928262;29;20322;-84
2023/01/06 03:53:30;;;;;;;;;;;;;;;;;;4928827;29;19954;-84
2023/01/06 03:55:55;;;;;;;;;;;;;;;;;;4888370;29;19922;-83
2023/01/06 03:58:21;;;;;;;;;;;;;;;;;;4902103;29;20390;-83
2023/01/06 04:00:47;;;;;;;;;;;;;;;;;;4904796;29;19915;-83
2023/01/06 04:03:14;;;;;;;;;;;;;;;;;;4889124;29;19915;-82
2023/01/06 04:05:41;;;;;;;;;;;;;;;;;;4889830;29;19919;-83
2023/01/06 04:08:07;;;;;;;;;;;;;;;;;;4891748;29;19926;-82
2023/01/06 04:10:33;;;;;;;;;;;;;;;;;;4950677;29;19915;-82
2023/01/06 04:12:59;;;;;;;;;;;;;;;;;;4900744;29;19919;-81
2023/01/06 04:15:28;;;;;;;;;;;;;;;;;;4916148;29;19903;-81
2023/01/06 04:17:54;;;;;;;;;;;;;;;;;;4936157;29;19915;-82
2023/01/06 04:20:20;;;;;;;;;;;;;;;;;;4952680;29;19930;-82
2023/01/06 04:22:47;;;;;;;;;;;;;;;;;;4939777;29;19919;-83
2023/01/06 04:25:12;;;;;;;;;;;;;;;;;;4909755;29;19940;-83
2023/01/06 04:27:39;;;;;;;;;;;;;;;;;;4910320;29;19923;-83
2023/01/06 04:30:04;;;;;;;;;;;;;;;;;;4950862;29;19915;-82
2023/01/06 04:32:29;;;;;;;;;;;;;;;;;;4892082;29;20390;-82
2023/01/06 04:34:55;;;;;;;;;;;;;;;;;;4906662;29;19923;-82
2023/01/06 04:37:21;;;;;;;;;;;;;;;;;;4922755;29;19930;-83
2023/01/06 04:39:46;;;;;;;;;;;;;;;;;;4921854;29;19974;-84
2023/01/06 04:42:12;;;;;;;;;;;;;;;;;;4905158;29;19915;-83
2023/01/06 04:44:37;;;;;;;;;;;;;;;;;;4907367;29;19999;-82
2023/01/06 04:47:02;;;;;;;;;;;;;;;;;;4923099;29;19971;-82
2023/01/06 04:49:28;;;;;;;;;;;;;;;;;;4905374;29;19911;-83
2023/01/06 04:51:53;;;;;;;;;;;;;;;;;;4952255;29;19915;-82
2023/01/06 04:54:19;;;;;;;;;;;;;;;;;;4902328;29;19919;-82
2023/01/06 04:56:47;;;;;;;;;;;;;;;;;;4934487;29;19958;-82
2023/01/06 04:59:13;;;;;;;;;;;;;;;;;;4892191;29;19950;-82
2023/01/06 05:01:38;;;;;;;;;;;;;;;;;;4907249;28;19921;-83
2023/01/06 05:04:06;;;;;;;;;;;;;;;;;;4907884;29;19919;-83
2023/01/06 05:06:31;;;;;;;;;;;;;;;;;;4940053;29;19915;-83
2023/01/06 05:08:59;;;;;;;;;;;;;;;;;;4938978;29;19990;-83
2023/01/06 05:11:31;;;;;;;;;;;;;;;;;;4903634;29;19922;-83
2023/01/06 05:13:56;;;;;;;;;;;;;;;;;;4935735;29;19915;-82
2023/01/06 05:16:22;;;;;;;;;;;;;;;;;;4887982;29;19986;-82
2023/01/06 05:18:47;;;;;;;;;;;;;;;;;;4904197;29;19919;-83
2023/01/06 05:21:13;;;;;;;;;;;;;;;;;;4920235;29;19966;-83
2023/01/06 05:23:38;;;;;;;;;;;;;;;;;;4888350;29;19923;-82
2023/01/06 05:26:06;;;;;;;;;;;;;;;;;;4919040;29;19915;-83
2023/01/06 05:28:32;;;;;;;;;;;;;;;;;;4935680;29;19968;-82
2023/01/06 05:30:57;;;;;;;;;;;;;;;;;;4934922;29;19920;-83
2023/01/06 05:33:23;;;;;;;;;;;;;;;;;;4932680;29;19919;-82
2023/01/06 05:35:48;;;;;;;;;;;;;;;;;;4901380;29;20381;-82
2023/01/06 05:38:14;;;;;;;;;;;;;;;;;;4918169;29;19986;-83
2023/01/06 05:40:41;;;;;;;;;;;;;;;;;;4915092;29;21249;-82
2023/01/06 05:43:07;;;;;;;;;;;;;;;;;;4898937;29;19919;-82
2023/01/06 05:45:32;;;;;;;;;;;;;;;;;;4932509;29;19922;-82
2023/01/06 05:47:58;;;;;;;;;;;;;;;;;;4917152;29;19911;-82
2023/01/06 05:50:23;;;;;;;;;;;;;;;;;;4903943;29;19915;-83
2023/01/06 05:52:49;;;;;;;;;;;;;;;;;;4904443;29;19974;-83
2023/01/06 05:55:14;;;;;;;;;;;;;;;;;;4921407;29;19915;-82
2023/01/06 05:57:40;;;;;;;;;;;;;;;;;;4906880;29;20370;-83
2023/01/06 06:00:06;;;;;;;;;;;;;;;;;;4919802;29;19955;-83
2023/01/06 06:02:37;;;;;;;;;;;;;;;;;;4919771;29;19927;-83
2023/01/06 06:05:03;;;;;;;;;;;;;;;;;;4905637;29;19923;-83
2023/01/06 06:07:31;;;;;;;;;;;;;;;;;;4922104;29;19910;-83
2023/01/06 06:09:57;;;;;;;;;;;;;;;;;;4937677;29;19928;-83
2023/01/06 06:12:22;;;;;;;;;;;;;;;;;;4919494;29;19900;-82
2023/01/06 06:14:48;;;;;;;;;;;;;;;;;;4942884;29;19915;-82
2023/01/06 06:17:13;;;;;;;;;;;;;;;;;;4907926;29;19978;-83
2023/01/06 06:22:19;;;;;;;;;;;;;;;;;;4918730;29;19912;-83
2023/01/06 06:24:48;;;;;;;;;;;;;;;;;;4889388;29;19916;-83
2023/01/06 06:27:16;;;;;;;;;;;;;;;;;;4905173;29;19920;-84
2023/01/06 06:35:06;;;;;;;;;;;;;;;;;;5500369;23;19927;-85
2023/01/06 06:45:52;;;;;;;;;;;;;;;;;;5746615;23;19910;-83
2023/01/06 06:50:59;;;;;;;;;;;;;;;;;;5005742;23;19990;-83
2023/01/06 06:53:25;;;;;;;;;;;;;;;;;;4941056;29;19914;-84
2023/01/06 06:55:51;;;;;;;;;;;;;;;;;;4973236;29;19919;-84
2023/01/06 06:58:20;;;;;;;;;;;;;;;;;;4957307;29;19915;-83
2023/01/06 07:00:46;;;;;;;;;;;;;;;;;;4955645;29;19921;-83
2023/01/06 07:03:11;;;;;;;;;;;;;;;;;;4953280;29;19914;-84
2023/01/06 07:05:37;;;;;;;;;;;;;;;;;;4936654;29;19914;-83
2023/01/06 07:08:03;;;;;;;;;;;;;;;;;;4922532;29;19915;-83
2023/01/06 07:10:29;;;;;;;;;;;;;;;;;;4906243;29;19946;-84
2023/01/06 07:12:57;;;;;;;;;;;;;;;;;;4935289;29;19950;-83
2023/01/06 07:15:23;;;;;;;;;;;;;;;;;;4952919;29;19947;-83
2023/01/06 07:17:49;;;;;;;;;;;;;;;;;;4938947;29;19919;-83
2023/01/06 07:20:14;;;;;;;;;;;;;;;;;;4953795;29;19914;-83
2023/01/06 07:22:40;;;;;;;;;;;;;;;;;;4961581;29;19994;-83
2023/01/06 07:25:06;;;;;;;;;;;;;;;;;;4946718;29;19899;-83
2023/01/06 07:27:34;;;;;;;;;;;;;;;;;;4962515;29;19914;-83
2023/01/06 07:30:00;;;;;;;;;;;;;;;;;;4978692;29;19964;-82
2023/01/06 07:32:26;;;;;;;;;;;;;;;;;;4978929;29;19902;-84
2023/01/06 07:34:51;;;;;;;;;;;;;;;;;;4945121;29;19914;-84
2023/01/06 07:37:17;;;;;;;;;;;;;;;;;;4960953;29;19924;-83
2023/01/06 07:39:43;;;;;;;;;;;;;;;;;;4958392;29;19914;-83
2023/01/06 07:42:09;;;;;;;;;;;;;;;;;;4943704;29;19914;-82
2023/01/06 07:44:34;;;;;;;;;;;;;;;;;;4942002;29;19999;-83
2023/01/06 07:47:03;;;;;;;;;;;;;;;;;;4977900;29;19922;-82
2023/01/06 07:52:10;;;;;;;;;;;;;;;;;;5422267;23;19938;-83
2023/01/06 07:54:38;;;;;;;;;;;;;;;;;;4966550;28;19982;-84
2023/01/06 08:08:02;;;;;;;;;;;;;;;;;;5017260;23;19998;-83
2023/01/06 08:42:43;;;;;;;;;;;;;;;;;;5944616;23;19921;-82
2023/01/06 09:10:07;;;;;;;;;;;;;;;;;;4956990;28;19933;-84
2023/01/06 09:12:32;;;;;;;;;;;;;;;;;;4908644;29;19915;-84
2023/01/06 09:14:58;;;;;;;;;;;;;;;;;;4957836;28;19939;-84
2023/01/06 09:17:28;;;;;;;;;;;;;;;;;;5504436;23;19994;-83
2023/01/06 10:13:13;;;;;;;;;;;;;;;;;;5339538;23;19978;-89
2023/01/06 10:15:45;;;;;;;;;;;;;;;;;;4928768;28;19907;-91
2023/01/06 10:18:10;;;;;;;;;;;;;;;;;;5066619;23;19931;-91
2023/01/06 10:20:36;;;;;;;;;;;;;;;;;;4909249;29;19915;-91
2023/01/06 10:23:05;;;;;;;;;;;;;;;;;;4929640;29;19961;-90
2023/01/06 10:25:31;;;;;;;;;;;;;;;;;;4936286;29;19919;-91
2023/01/06 10:27:57;;;;;;;;;;;;;;;;;;4933341;29;19912;-90
2023/01/06 10:30:22;;;;;;;;;;;;;;;;;;4928468;29;19915;-88
2023/01/06 10:32:51;;;;;;;;;;;;;;;;;;4932360;28;19899;-89
2023/01/06 10:35:26;;;;;;;;;;;;;;;;;;5206005;23;19938;-91
2023/01/06 10:37:51;;;;;;;;;;;;;;;;;;4911119;29;19923;-93
2023/01/06 10:40:16;;;;;;;;;;;;;;;;;;4921221;29;19914;-93
2023/01/06 10:42:54;;;;;;;;;;;;;;;;;;4907726;29;20433;-92
2023/01/06 10:45:20;;;;;;;;;;;;;;;;;;4911726;29;19922;-90
2023/01/06 10:50:26;;;;;;;;;;;;;;;;;;5441933;23;19926;-90
2023/01/06 10:52:52;;;;;;;;;;;;;;;;;;4918532;29;19919;-92
2023/01/06 10:55:18;;;;;;;;;;;;;;;;;;4903241;29;19919;-93
2023/01/06 10:57:43;;;;;;;;;;;;;;;;;;4904036;29;20006;-91
2023/01/06 11:00:11;;;;;;;;;;;;;;;;;;4917545;29;19930;-91
2023/01/06 11:02:58;;;;;;;;;;;;;;;;;;4909928;29;19923;-92
2023/01/06 11:05:50;;;;;;;;;;;;;;;;;;4931319;29;19923;-92
2023/01/06 11:08:15;;;;;;;;;;;;;;;;;;4904197;29;19919;-91
2023/01/06 11:10:43;;;;;;;;;;;;;;;;;;4935013;29;19938;-91
2023/01/06 11:16:00;;;;;;;;;;;;;;;;;;5059730;23;19927;-93
2023/01/06 11:18:25;;;;;;;;;;;;;;;;;;4933167;29;19922;-93
2023/01/06 11:20:51;;;;;;;;;;;;;;;;;;4935946;29;20374;-92
2023/01/06 11:23:16;;;;;;;;;;;;;;;;;;4921821;29;19946;-93
2023/01/06 11:25:41;;;;;;;;;;;;;;;;;;4908260;29;20401;-92
2023/01/06 11:28:07;;;;;;;;;;;;;;;;;;4908932;29;19915;-90
2023/01/06 11:30:32;;;;;;;;;;;;;;;;;;4910823;29;19942;-93
2023/01/06 11:32:58;;;;;;;;;;;;;;;;;;4907927;29;19915;-93
2023/01/06 11:38:04;;;;;;;;;;;;;;;;;;5389635;23;19926;-93
2023/01/06 11:40:31;;;;;;;;;;;;;;;;;;4927027;29;19918;-91
2023/01/06 11:42:56;;;;;;;;;;;;;;;;;;4945931;29;19918;-91
2023/01/06 11:45:21;;;;;;;;;;;;;;;;;;4933724;29;19958;-94
2023/01/06 11:47:47;;;;;;;;;;;;;;;;;;4925861;29;19914;-92
2023/01/06 11:50:12;;;;;;;;;;;;;;;;;;4890763;29;19970;-91
2023/01/06 11:52:38;;;;;;;;;;;;;;;;;;4921353;29;19957;-88
2023/01/06 11:55:03;;;;;;;;;;;;;;;;;;4912716;29;20306;-92
2023/01/06 11:57:29;;;;;;;;;;;;;;;;;;4914687;29;20001;-89
2023/01/06 11:59:54;;;;;;;;;;;;;;;;;;4933543;29;19914;-88
2023/01/06 12:02:20;;;;;;;;;;;;;;;;;;4924785;29;20338;-92
2023/01/06 12:04:45;;;;;;;;;;;;;;;;;;4905056;29;19937;-82
2023/01/06 12:07:11;;;;;;;;;;;;;;;;;;4944636;29;19938;-86
2023/01/06 12:09:36;;;;;;;;;;;;;;;;;;4946040;28;19915;-81
2023/01/06 12:12:01;;;;;;;;;;;;;;;;;;4957366;29;19914;-81
2023/01/06 12:14:27;;;;;;;;;;;;;;;;;;4959896;29;19919;-80
2023/01/06 12:16:52;;;;;;;;;;;;;;;;;;4944841;29;20008;-83
2023/01/06 12:19:18;;;;;;;;;;;;;;;;;;4926332;29;20412;-81
2023/01/06 12:21:44;;;;;;;;;;;;;;;;;;4949346;29;19922;-82
2023/01/06 12:24:09;;;;;;;;;;;;;;;;;;4955843;29;19914;-89
2023/01/06 12:26:35;;;;;;;;;;;;;;;;;;4939556;29;20273;-83
2023/01/06 12:29:00;;;;;;;;;;;;;;;;;;4934832;29;19933;-84
2023/01/06 12:31:28;;;;;;;;;;;;;;;;;;5125975;23;19931;-84
2023/01/06 12:33:54;;;;;;;;;;;;;;;;;;4939142;29;19915;-83
2023/01/06 12:36:19;;;;;;;;;;;;;;;;;;4965895;29;19925;-86
2023/01/06 12:38:45;;;;;;;;;;;;;;;;;;4935981;29;19918;-89
2023/01/06 12:41:10;;;;;;;;;;;;;;;;;;4946366;29;20377;-86
2023/01/06 12:43:36;;;;;;;;;;;;;;;;;;4927747;29;19942;-90
2023/01/06 12:46:01;;;;;;;;;;;;;;;;;;4911258;29;19925;-89
2023/01/06 12:48:27;;;;;;;;;;;;;;;;;;4915141;29;19915;-89
2023/01/06 12:50:52;;;;;;;;;;;;;;;;;;4928448;29;19914;-88
2023/01/06 12:53:18;;;;;;;;;;;;;;;;;;4938773;28;19923;-85
2023/01/06 12:55:43;;;;;;;;;;;;;;;;;;4932681;29;19923;-87
2023/01/06 12:58:11;;;;;;;;;;;;;;;;;;4894946;29;19922;-89
2023/01/06 13:00:37;;;;;;;;;;;;;;;;;;4894955;29;19910;-90
2023/01/06 13:03:02;;;;;;;;;;;;;;;;;;4898083;29;20327;-89
2023/01/06 13:05:28;;;;;;;;;;;;;;;;;;4913271;29;19939;-90
2023/01/06 13:07:53;;;;;;;;;;;;;;;;;;4901131;29;19905;-88
2023/01/06 13:10:19;;;;;;;;;;;;;;;;;;4909490;29;19930;-88
2023/01/06 13:12:44;;;;;;;;;;;;;;;;;;4914393;29;20392;-88
2023/01/06 13:15:09;;;;;;;;;;;;;;;;;;4898503;29;19921;-91
2023/01/06 13:17:35;;;;;;;;;;;;;;;;;;4893517;29;19923;-89
2023/01/06 13:20:05;;;;;;;;;;;;;;;;;;4924573;29;19915;-88
2023/01/06 13:22:30;;;;;;;;;;;;;;;;;;4925712;29;20110;-93
2023/01/06 13:24:56;;;;;;;;;;;;;;;;;;4924545;29;20404;-91
2023/01/06 13:27:21;;;;;;;;;;;;;;;;;;4907266;29;19922;-91
2023/01/06 13:29:48;;;;;;;;;;;;;;;;;;4926594;29;20300;-93
2023/01/06 13:32:14;;;;;;;;;;;;;;;;;;4912017;29;19977;-92
2023/01/06 13:34:39;;;;;;;;;;;;;;;;;;4933728;29;19914;-90
2023/01/06 13:37:05;;;;;;;;;;;;;;;;;;4931247;29;19954;-88
2023/01/06 13:39:31;;;;;;;;;;;;;;;;;;4918293;29;19922;-81
2023/01/06 13:41:56;;;;;;;;;;;;;;;;;;4970580;29;19914;-81
2023/01/06 13:44:22;;;;;;;;;;;;;;;;;;4931181;29;19990;-84
2023/01/06 13:46:47;;;;;;;;;;;;;;;;;;4946974;29;19954;-85
2023/01/06 13:49:13;;;;;;;;;;;;;;;;;;4923048;29;19944;-82
2023/01/06 13:51:38;;;;;;;;;;;;;;;;;;4942921;29;19922;-82
2023/01/06 13:54:03;;;;;;;;;;;;;;;;;;4958637;29;19957;-83
2023/01/06 13:56:29;;;;;;;;;;;;;;;;;;4932546;29;19918;-85
2023/01/06 13:58:54;;;;;;;;;;;;;;;;;;4947430;29;19915;-83
2023/01/06 14:01:20;;;;;;;;;;;;;;;;;;4942718;29;20374;-88
2023/01/06 14:03:45;;;;;;;;;;;;;;;;;;4939017;29;19918;-84
2023/01/06 14:06:11;;;;;;;;;;;;;;;;;;4956256;29;19910;-82
2023/01/06 14:08:36;;;;;;;;;;;;;;;;;;4953760;29;20356;-86
2023/01/06 14:11:02;;;;;;;;;;;;;;;;;;4912910;29;19914;-84
2023/01/06 14:13:28;;;;;;;;;;;;;;;;;;4945885;29;20298;-88
2023/01/06 14:15:56;;;;;;;;;;;;;;;;;;4923677;29;19918;-88
2023/01/06 14:18:21;;;;;;;;;;;;;;;;;;4927776;29;19950;-88
2023/01/06 14:20:47;;;;;;;;;;;;;;;;;;4940682;29;19961;-88
2023/01/06 14:23:12;;;;;;;;;;;;;;;;;;4940930;29;20463;-85
2023/01/06 14:25:38;;;;;;;;;;;;;;;;;;4942857;29;20013;-86
2023/01/06 14:28:03;;;;;;;;;;;;;;;;;;4978167;29;19914;-82
2023/01/06 14:30:29;;;;;;;;;;;;;;;;;;4959690;29;19930;-86
2023/01/06 14:32:54;;;;;;;;;;;;;;;;;;4941022;29;19921;-85
2023/01/06 14:35:20;;;;;;;;;;;;;;;;;;4955238;29;19926;-86
2023/01/06 14:37:51;;;;;;;;;;;;;;;;;;4920807;29;19923;-89
2023/01/06 14:40:17;;;;;;;;;;;;;;;;;;4950166;29;20416;-88
2023/01/06 14:42:42;;;;;;;;;;;;;;;;;;4932411;29;19914;-86
2023/01/06 14:45:08;;;;;;;;;;;;;;;;;;4927218;29;19911;-82
2023/01/06 14:47:33;;;;;;;;;;;;;;;;;;4938559;29;19950;-87
2023/01/06 14:49:58;;;;;;;;;;;;;;;;;;4936119;29;20370;-88
2023/01/06 14:52:24;;;;;;;;;;;;;;;;;;4931993;29;19968;-88
2023/01/06 14:54:49;;;;;;;;;;;;;;;;;;4963514;29;20049;-87
2023/01/06 14:57:15;;;;;;;;;;;;;;;;;;4936190;29;20394;-89
2023/01/06 14:59:40;;;;;;;;;;;;;;;;;;4946181;29;19914;-87
2023/01/06 15:02:06;;;;;;;;;;;;;;;;;;4942402;29;19914;-91
2023/01/06 15:04:31;;;;;;;;;;;;;;;;;;4958686;29;20338;-88
2023/01/06 15:06:56;;;;;;;;;;;;;;;;;;4959179;29;20281;-89
2023/01/06 15:09:22;;;;;;;;;;;;;;;;;;4926150;29;19915;-89
2023/01/06 15:11:47;;;;;;;;;;;;;;;;;;4938626;29;20330;-90
2023/01/06 15:14:13;;;;;;;;;;;;;;;;;;4939428;29;19915;-89
2023/01/06 15:16:38;;;;;;;;;;;;;;;;;;4921521;29;19919;-89
2023/01/06 15:19:04;;;;;;;;;;;;;;;;;;4922038;29;19994;-89
2023/01/06 15:21:29;;;;;;;;;;;;;;;;;;4939188;29;19958;-88
2023/01/06 15:23:55;;;;;;;;;;;;;;;;;;4934029;23;20030;-88
2023/01/06 15:26:20;;;;;;;;;;;;;;;;;;4890420;29;19919;-88
2023/01/06 15:28:46;;;;;;;;;;;;;;;;;;4895221;29;19921;-88
2023/01/06 15:31:11;;;;;;;;;;;;;;;;;;4891351;29;19921;-89
2023/01/06 15:33:36;;;;;;;;;;;;;;;;;;4906650;29;20326;-88
2023/01/06 15:36:02;;;;;;;;;;;;;;;;;;4890566;29;20294;-89
2023/01/06 15:38:27;;;;;;;;;;;;;;;;;;4890682;29;19976;-88
2023/01/06 15:40:53;;;;;;;;;;;;;;;;;;4890344;29;20285;-88
2023/01/06 15:43:18;;;;;;;;;;;;;;;;;;4887559;29;19915;-89
2023/01/06 15:45:43;;;;;;;;;;;;;;;;;;4886965;29;20263;-89
2023/01/06 15:48:09;;;;;;;;;;;;;;;;;;4887845;29;19938;-88
2023/01/06 15:50:34;;;;;;;;;;;;;;;;;;4906983;29;19922;-88
2023/01/06 15:53:02;;;;;;;;;;;;;;;;;;4903961;29;20405;-87
2023/01/06 15:55:28;;;;;;;;;;;;;;;;;;4904070;29;19919;-88
2023/01/06 15:57:53;;;;;;;;;;;;;;;;;;4890490;29;20370;-86
2023/01/06 16:00:19;;;;;;;;;;;;;;;;;;4923375;29;20025;-87
2023/01/06 16:02:44;;;;;;;;;;;;;;;;;;4910041;29;20294;-87
2023/01/06 16:05:10;;;;;;;;;;;;;;;;;;4934674;29;19931;-86
2023/01/06 16:07:38;;;;;;;;;;;;;;;;;;4939471;28;19962;-84
2023/01/06 16:10:11;;;;;;;;;;;;;;;;;;4911492;29;19946;-88
2023/01/06 16:12:37;;;;;;;;;;;;;;;;;;4905494;29;19910;-87
2023/01/06 16:15:02;;;;;;;;;;;;;;;;;;4917232;29;19990;-89
2023/01/06 16:17:31;;;;;;;;;;;;;;;;;;4897981;29;20433;-90
2023/01/06 16:20:00;;;;;;;;;;;;;;;;;;4892662;29;19915;-89
2023/01/06 16:22:26;;;;;;;;;;;;;;;;;;4890839;29;19922;-91
2023/01/06 16:24:51;;;;;;;;;;;;;;;;;;4890359;29;19919;-90
2023/01/06 16:27:17;;;;;;;;;;;;;;;;;;4890851;29;20327;-89
2023/01/06 16:29:42;;;;;;;;;;;;;;;;;;4893129;29;19977;-90
2023/01/06 16:32:07;;;;;;;;;;;;;;;;;;4889615;29;19930;-90
2023/01/06 16:34:33;;;;;;;;;;;;;;;;;;4890482;29;19919;-89
2023/01/06 16:37:02;;;;;;;;;;;;;;;;;;4893243;29;19925;-89
2023/01/06 16:39:28;;;;;;;;;;;;;;;;;;4892003;29;19921;-90
2023/01/06 16:41:53;;;;;;;;;;;;;;;;;;4891591;29;20002;-89
2023/01/06 16:44:18;;;;;;;;;;;;;;;;;;4908553;29;19915;-90
2023/01/06 16:46:44;;;;;;;;;;;;;;;;;;4891556;29;19915;-90
2023/01/06 16:49:09;;;;;;;;;;;;;;;;;;4891130;29;19910;-90
2023/01/06 16:51:35;;;;;;;;;;;;;;;;;;4886689;29;19994;-88
2023/01/06 16:54:00;;;;;;;;;;;;;;;;;;4873828;29;19978;-90
2023/01/06 16:56:26;;;;;;;;;;;;;;;;;;4873554;29;20393;-90
2023/01/06 16:58:51;;;;;;;;;;;;;;;;;;4872846;29;19938;-89
2023/01/06 17:01:17;;;;;;;;;;;;;;;;;;4873373;29;19999;-88
2023/01/06 17:03:42;;;;;;;;;;;;;;;;;;4874298;29;19919;-90
2023/01/06 17:06:08;;;;;;;;;;;;;;;;;;4881346;29;19915;-89
2023/01/06 17:08:33;;;;;;;;;;;;;;;;;;4906250;29;20359;-89
2023/01/06 17:10:58;;;;;;;;;;;;;;;;;;4889564;29;20274;-89
2023/01/06 17:13:33;;;;;;;;;;;;;;;;;;4889406;29;19921;-89
2023/01/06 17:15:59;;;;;;;;;;;;;;;;;;4904627;29;19926;-88
2023/01/06 17:18:24;;;;;;;;;;;;;;;;;;4905943;29;19915;-90
2023/01/06 17:20:50;;;;;;;;;;;;;;;;;;4890845;29;20365;-88
2023/01/06 17:23:15;;;;;;;;;;;;;;;;;;4923124;29;19919;-89
2023/01/06 17:25:41;;;;;;;;;;;;;;;;;;4907512;29;20023;-88
2023/01/06 17:28:06;;;;;;;;;;;;;;;;;;4904314;29;20250;-90
2023/01/06 17:30:32;;;;;;;;;;;;;;;;;;4889359;29;20264;-89
2023/01/06 17:32:57;;;;;;;;;;;;;;;;;;4893205;29;19915;-89
2023/01/06 17:35:22;;;;;;;;;;;;;;;;;;4892834;29;19919;-88
2023/01/06 17:37:48;;;;;;;;;;;;;;;;;;4904208;29;20344;-88
2023/01/06 17:40:13;;;;;;;;;;;;;;;;;;4887589;29;19915;-89
2023/01/06 17:42:39;;;;;;;;;;;;;;;;;;4894737;28;19971;-86
2023/01/06 18:12:05;;;;;;;;;;;;;;;;;;5636729;23;19926;-85
2023/01/06 18:14:45;;;;;;;;;;;;;;;;;;4932656;28;19919;-84
2023/01/06 19:05:34;;;;;;;;;;;;;;;;;;5708822;23;20057;-86
2023/01/06 19:32:37;;;;;;;;;;;;;;;;;;5840862;23;19930;-85
2023/01/06 19:40:45;;;;;;;;;;;;;;;;;;5742912;23;20580;-86
2023/01/06 19:43:15;;;;;;;;;;;;;;;;;;4939690;29;19923;-85
2023/01/06 19:53:48;;;;;;;;;;;;;;;;;;5509640;23;19930;-85
2023/01/06 19:59:02;;;;;;;;;;;;;;;;;;5368699;23;19911;-86
2023/01/06 20:43:17;;;;;;;;;;;;;;;;;;5470841;23;19960;-86
2023/01/06 20:57:17;;;;;;;;;;;;;;;;;;5895469;23;19925;-84
2023/01/06 21:05:14;;;;;;;;;;;;;;;;;;6001887;23;21818;-83
2023/01/06 21:07:47;;;;;;;;;;;;;;;;;;5642643;23;19946;-84
2023/01/06 21:24:03;;;;;;;;;;;;;;;;;;5195195;23;20394;-94
2023/01/06 21:26:29;;;;;;;;;;;;;;;;;;4926626;29;19918;-95
2023/01/06 21:28:57;;;;;;;;;;;;;;;;;;4929431;29;19915;-94
2023/01/06 21:31:25;;;;;;;;;;;;;;;;;;4930207;29;19958;-93
2023/01/06 21:33:51;;;;;;;;;;;;;;;;;;4924787;29;19914;-94
2023/01/06 21:36:22;;;;;;;;;;;;;;;;;;4925343;29;19919;-93
2023/01/06 21:38:47;;;;;;;;;;;;;;;;;;4925568;29;19933;-95
2023/01/06 21:44:00;;;;;;;;;;;;;;;;;;4912330;29;19914;-95
2023/01/06 21:46:29;;;;;;;;;;;;;;;;;;4899011;29;19918;-91
2023/01/06 21:48:54;;;;;;;;;;;;;;;;;;4903872;29;19938;-92
2023/01/06 21:51:20;;;;;;;;;;;;;;;;;;4902916;29;20271;-94
2023/01/06 21:53:45;;;;;;;;;;;;;;;;;;4901218;29;20004;-93
2023/01/06 21:56:11;;;;;;;;;;;;;;;;;;4906029;29;19919;-92
2023/01/06 21:58:37;;;;;;;;;;;;;;;;;;4908635;29;19915;-92
2023/01/06 22:01:02;;;;;;;;;;;;;;;;;;4909562;29;19922;-94
2023/01/06 22:03:37;;;;;;;;;;;;;;;;;;4926998;29;19919;-93
2023/01/06 22:06:02;;;;;;;;;;;;;;;;;;4923678;29;19938;-94
2023/01/06 22:08:28;;;;;;;;;;;;;;;;;;4909161;29;19911;-88
2023/01/06 22:10:53;;;;;;;;;;;;;;;;;;4908724;29;19915;-93
2023/01/06 22:13:19;;;;;;;;;;;;;;;;;;4914398;29;19958;-92
2023/01/06 22:15:45;;;;;;;;;;;;;;;;;;4913947;29;20378;-93
2023/01/06 22:18:13;;;;;;;;;;;;;;;;;;4910394;29;19915;-94
2023/01/06 22:20:39;;;;;;;;;;;;;;;;;;4895118;29;19926;-92
2023/01/06 22:23:04;;;;;;;;;;;;;;;;;;4913080;29;19919;-94